PWSweather.com
Personal Weather Stations
Station Observations
PWSLORIS
The Farm At Fox Bay, Loris, SC 29569

The Farm At Fox BayLoris, SC 29569

Lat: 34.067097, Lon: -78.86907

Elevation: 108

Station Type: Davis Vantage Pro2 with 24 hr. FARS and solar

http://www.lorisweather.com

Latest ConditionsUpdated 4:45:01 PM EDT Monday, Sep 23, 2019
Currently Today's Max Today's Min Today's Average
Temperature 82.1°F27.8°C 85.0°F29.4°C 57.4°F14.1°C 69.8°F21.0°C
Dew Point 67.8°F19.9°C 70.0°F21.1°C 54.8°F12.7°C 62.0°F16.7°C
Winds 2.3 mph SSW3.7 kmh SSW 4.6 mph -7.4 kmh - - 0.3 mph 0.5 kmh
Wind Gusts 3.5 mph5.6 kmh 8.1 mph13.0 kmh - -
Humidity 62% 91% 55% 78%
Pressure 29.96 in1014.6 mb 30.12 in1020.0 mb 29.96 in1014.6 mb -
Hour Temp Dew Point Humidity Winds Wind Gusts Pressure Precip Precip Rate Daily Precip Total
04:45 PM 82.1°F27.8°C 67.8°F19.9°C 62% 2.3 mph SSW3.7 kmh SSW 3.5 mph5.6 kmh 29.96 in1014.6 mb - 0.00 in0.0 mm 0.00 in0.0 mm
04:30 PM 83.8°F28.8°C 66.9°F19.4°C 57% 3.5 mph S5.6 kmh S 3.5 mph5.6 kmh 29.96 in1014.6 mb - 0.00 in0.0 mm 0.00 in0.0 mm
04:15 PM 81.7°F27.6°C 68.3°F20.2°C 64% Calm Calm -- 29.96 in1014.6 mb - 0.00 in0.0 mm 0.00 in0.0 mm
04:00 PM 84.5°F29.2°C 67.6°F19.8°C 57% 1.2 mph S1.9 kmh S 4.6 mph7.4 kmh 29.96 in1014.6 mb - 0.00 in0.0 mm 0.00 in0.0 mm
03:45 PM 84.2°F29.0°C 67.4°F19.7°C 57% 3.5 mph S5.6 kmh S 5.8 mph9.3 kmh 29.96 in1014.6 mb - 0.00 in0.0 mm 0.00 in0.0 mm
03:30 PM 84.1°F28.9°C 66.7°F19.3°C 56% 1.2 mph S1.9 kmh S 2.3 mph3.7 kmh 29.97 in1014.9 mb - 0.00 in0.0 mm 0.00 in0.0 mm
03:15 PM 81.9°F27.7°C 68.1°F20.1°C 63% Calm Calm 2.3 mph3.7 kmh 29.97 in1014.9 mb - 0.00 in0.0 mm 0.00 in0.0 mm
03:00 PM 84.9°F29.4°C 67.5°F19.7°C 56% 4.6 mph S7.4 kmh S 4.6 mph7.4 kmh 29.98 in1015.2 mb - 0.00 in0.0 mm 0.00 in0.0 mm
02:45 PM 84.9°F29.4°C 67.5°F19.7°C 56% Calm Calm -- 29.98 in1015.2 mb - 0.00 in0.0 mm 0.00 in0.0 mm
02:30 PM 84.6°F29.2°C 66.6°F19.2°C 55% Calm Calm -- 29.99 in1015.6 mb - 0.00 in0.0 mm 0.00 in0.0 mm
02:15 PM 85.0°F29.4°C 67.5°F19.7°C 56% Calm Calm 1.2 mph1.9 kmh 30.00 in1015.9 mb - 0.00 in0.0 mm 0.00 in0.0 mm
02:00 PM 83.8°F28.8°C 66.4°F19.1°C 56% Calm Calm -- 30.01 in1016.3 mb - 0.00 in0.0 mm 0.00 in0.0 mm
01:45 PM 84.3°F29.1°C 66.3°F19.1°C 55% 3.5 mph N5.6 kmh N 8.1 mph13.0 kmh 30.02 in1016.6 mb - 0.00 in0.0 mm 0.00 in0.0 mm
01:30 PM 83.6°F28.7°C 67.3°F19.6°C 58% Calm Calm 3.5 mph5.6 kmh 30.03 in1016.9 mb - 0.00 in0.0 mm 0.00 in0.0 mm
01:15 PM 82.9°F28.3°C 65.6°F18.7°C 56% Calm Calm 3.5 mph5.6 kmh 30.04 in1017.3 mb - 0.00 in0.0 mm 0.00 in0.0 mm
01:00 PM 83.4°F28.6°C 68.6°F20.3°C 61% Calm Calm 3.5 mph5.6 kmh 30.04 in1017.3 mb - 0.00 in0.0 mm 0.00 in0.0 mm
12:45 PM 82.0°F27.8°C 66.7°F19.3°C 60% Calm Calm -- 30.05 in1017.6 mb - 0.00 in0.0 mm 0.00 in0.0 mm
12:30 PM 82.3°F27.9°C 68.0°F20.0°C 62% Calm Calm 1.2 mph1.9 kmh 30.05 in1017.6 mb - 0.00 in0.0 mm 0.00 in0.0 mm
12:15 PM 82.1°F27.8°C 68.2°F20.1°C 63% Calm Calm -- 30.07 in1018.3 mb - 0.00 in0.0 mm 0.00 in0.0 mm
12:00 PM 81.5°F27.5°C 68.1°F20.1°C 64% Calm Calm -- 30.07 in1018.3 mb - 0.00 in0.0 mm 0.00 in0.0 mm
11:45 AM 80.4°F26.9°C 68.4°F20.2°C 67% Calm Calm -- 30.08 in1018.6 mb - 0.00 in0.0 mm 0.00 in0.0 mm
11:30 AM 80.2°F26.8°C 68.2°F20.1°C 67% Calm Calm -- 30.08 in1018.6 mb - 0.00 in0.0 mm 0.00 in0.0 mm
11:15 AM 80.4°F26.9°C 68.4°F20.2°C 67% Calm Calm 3.5 mph5.6 kmh 30.09 in1019.0 mb - 0.00 in0.0 mm 0.00 in0.0 mm
11:00 AM 78.9°F26.1°C 69.1°F20.6°C 72% Calm Calm 3.5 mph5.6 kmh 30.10 in1019.3 mb - 0.00 in0.0 mm 0.00 in0.0 mm
10:45 AM 78.6°F25.9°C 70.0°F21.1°C 75% Calm Calm 3.5 mph5.6 kmh 30.10 in1019.3 mb - 0.00 in0.0 mm 0.00 in0.0 mm
10:30 AM 78.3°F25.7°C 69.3°F20.7°C 74% Calm Calm 4.6 mph7.4 kmh 30.11 in1019.6 mb - 0.00 in0.0 mm 0.00 in0.0 mm
10:15 AM 77.7°F25.4°C 69.2°F20.7°C 75% Calm Calm -- 30.11 in1019.6 mb - 0.00 in0.0 mm 0.00 in0.0 mm
10:00 AM 76.0°F24.4°C 67.9°F19.9°C 76% Calm Calm -- 30.11 in1019.6 mb - 0.00 in0.0 mm 0.00 in0.0 mm
09:45 AM 74.8°F23.8°C 67.5°F19.7°C 78% Calm Calm -- 30.11 in1019.6 mb - 0.00 in0.0 mm 0.00 in0.0 mm
09:30 AM 73.5°F23.1°C 66.9°F19.4°C 80% Calm Calm -- 30.11 in1019.6 mb - 0.00 in0.0 mm 0.00 in0.0 mm
09:15 AM 71.3°F21.8°C 65.8°F18.8°C 83% Calm Calm -- 30.11 in1019.6 mb - 0.00 in0.0 mm 0.00 in0.0 mm
09:00 AM 69.2°F20.7°C 64.9°F18.3°C 86% Calm Calm -- 30.11 in1019.6 mb - 0.00 in0.0 mm 0.00 in0.0 mm
08:45 AM 66.7°F19.3°C 63.0°F17.2°C 88% Calm Calm -- 30.11 in1019.6 mb - 0.00 in0.0 mm 0.00 in0.0 mm
08:30 AM 64.5°F18.1°C 61.2°F16.2°C 89% Calm Calm -- 30.10 in1019.3 mb - 0.00 in0.0 mm 0.00 in0.0 mm
08:15 AM 61.8°F16.6°C 58.8°F14.9°C 90% Calm Calm -- 30.10 in1019.3 mb - 0.00 in0.0 mm 0.00 in0.0 mm
08:00 AM 59.8°F15.4°C 57.1°F13.9°C 91% Calm Calm -- 30.10 in1019.3 mb - 0.00 in0.0 mm 0.00 in0.0 mm
07:45 AM 58.2°F14.6°C 55.6°F13.1°C 91% Calm Calm -- 30.10 in1019.3 mb - 0.00 in0.0 mm 0.00 in0.0 mm
07:30 AM 57.6°F14.2°C 55.0°F12.8°C 91% Calm Calm -- 30.09 in1019.0 mb - 0.00 in0.0 mm 0.00 in0.0 mm
07:15 AM 57.5°F14.2°C 54.9°F12.7°C 91% Calm Calm -- 30.09 in1019.0 mb - 0.00 in0.0 mm 0.00 in0.0 mm
07:00 AM 57.5°F14.2°C 54.9°F12.7°C 91% Calm Calm -- 30.09 in1019.0 mb - 0.00 in0.0 mm 0.00 in0.0 mm
06:45 AM 57.4°F14.1°C 54.8°F12.7°C 91% Calm Calm -- 30.09 in1019.0 mb - 0.00 in0.0 mm 0.00 in0.0 mm
06:30 AM 57.5°F14.2°C 54.9°F12.7°C 91% Calm Calm -- 30.08 in1018.6 mb - 0.00 in0.0 mm 0.00 in0.0 mm
06:15 AM 57.6°F14.2°C 55.0°F12.8°C 91% Calm Calm -- 30.08 in1018.6 mb - 0.00 in0.0 mm 0.00 in0.0 mm
06:00 AM 57.7°F14.3°C 55.1°F12.8°C 91% Calm Calm -- 30.08 in1018.6 mb - 0.00 in0.0 mm 0.00 in0.0 mm
05:45 AM 57.9°F14.4°C 55.3°F12.9°C 91% Calm Calm -- 30.07 in1018.3 mb - 0.00 in0.0 mm 0.00 in0.0 mm
05:30 AM 58.0°F14.4°C 55.4°F13.0°C 91% Calm Calm -- 30.07 in1018.3 mb - 0.00 in0.0 mm 0.00 in0.0 mm
05:15 AM 58.1°F14.5°C 55.5°F13.1°C 91% Calm Calm -- 30.07 in1018.3 mb - 0.00 in0.0 mm 0.00 in0.0 mm
05:00 AM 58.5°F14.7°C 55.9°F13.3°C 91% Calm Calm -- 30.07 in1018.3 mb - 0.00 in0.0 mm 0.00 in0.0 mm
04:45 AM 58.6°F14.8°C 56.0°F13.3°C 91% Calm Calm -- 30.07 in1018.3 mb - 0.00 in0.0 mm 0.00 in0.0 mm
04:30 AM 58.7°F14.8°C 56.1°F13.4°C 91% Calm Calm -- 30.07 in1018.3 mb - 0.00 in0.0 mm 0.00 in0.0 mm
04:15 AM 58.7°F14.8°C 56.1°F13.4°C 91% Calm Calm -- 30.07 in1018.3 mb - 0.00 in0.0 mm 0.00 in0.0 mm
04:00 AM 59.0°F15.0°C 56.3°F13.5°C 91% Calm Calm -- 30.07 in1018.3 mb - 0.00 in0.0 mm 0.00 in0.0 mm
03:45 AM 59.2°F15.1°C 56.2°F13.4°C 90% Calm Calm -- 30.07 in1018.3 mb - 0.00 in0.0 mm 0.00 in0.0 mm
03:30 AM 59.4°F15.2°C 56.8°F13.8°C 91% Calm Calm -- 30.07 in1018.3 mb - 0.00 in0.0 mm 0.00 in0.0 mm
03:15 AM 59.4°F15.2°C 56.5°F13.6°C 90% Calm Calm -- 30.07 in1018.3 mb - 0.00 in0.0 mm 0.00 in0.0 mm
03:00 AM 59.8°F15.4°C 56.9°F13.8°C 90% Calm Calm -- 30.08 in1018.6 mb - 0.00 in0.0 mm 0.00 in0.0 mm
02:45 AM 60.2°F15.7°C 57.3°F14.1°C 90% Calm Calm -- 30.09 in1019.0 mb - 0.00 in0.0 mm 0.00 in0.0 mm
02:30 AM 60.3°F15.7°C 57.4°F14.1°C 90% Calm Calm -- 30.09 in1019.0 mb - 0.00 in0.0 mm 0.00 in0.0 mm
02:15 AM 60.7°F15.9°C 57.8°F14.3°C 90% Calm Calm -- 30.09 in1019.0 mb - 0.00 in0.0 mm 0.00 in0.0 mm
02:00 AM 61.1°F16.2°C 58.1°F14.5°C 90% Calm Calm -- 30.10 in1019.3 mb - 0.00 in0.0 mm 0.00 in0.0 mm
01:45 AM 61.4°F16.3°C 58.4°F14.7°C 90% Calm Calm -- 30.10 in1019.3 mb - 0.00 in0.0 mm 0.00 in0.0 mm
01:30 AM 61.4°F16.3°C 58.4°F14.7°C 90% Calm Calm -- 30.10 in1019.3 mb - 0.00 in0.0 mm 0.00 in0.0 mm
01:15 AM 61.6°F16.4°C 58.6°F14.8°C 90% Calm Calm -- 30.10 in1019.3 mb - 0.00 in0.0 mm 0.00 in0.0 mm
01:00 AM 61.9°F16.6°C 58.9°F14.9°C 90% Calm Calm -- 30.11 in1019.6 mb - 0.00 in0.0 mm 0.00 in0.0 mm
12:45 AM 62.0°F16.7°C 58.7°F14.8°C 89% Calm Calm -- 30.10 in1019.3 mb - 0.00 in0.0 mm 0.00 in0.0 mm
12:30 AM 62.1°F16.7°C 58.8°F14.9°C 89% Calm Calm -- 30.11 in1019.6 mb - 0.00 in0.0 mm 0.00 in0.0 mm
12:15 AM 62.3°F16.8°C 59.0°F15.0°C 89% Calm Calm -- 30.11 in1019.6 mb - 0.00 in0.0 mm 0.00 in0.0 mm
12:00 AM 62.7°F17.1°C 59.4°F15.2°C 89% Calm Calm -- 30.12 in1020.0 mb - 0.00 in0.0 mm 0.00 in0.0 mm